createdAt,value
2023-02-26T00:00:12.651Z,3.00
2023-02-26T00:02:40.197Z,2.40
2023-02-26T00:05:07.742Z,2.90
2023-02-26T00:07:35.521Z,3.23
2023-02-26T00:10:03.525Z,3.00
2023-02-26T00:12:31.517Z,3.77
2023-02-26T00:14:59.387Z,2.37
2023-02-26T00:17:38.916Z,2.20
2023-02-26T00:20:07.185Z,2.70
2023-02-26T00:22:34.826Z,2.73
2023-02-26T00:25:02.408Z,2.30
2023-02-26T00:27:29.908Z,2.63
2023-02-26T00:29:57.651Z,2.67
2023-02-26T00:32:25.315Z,3.30
2023-02-26T00:34:53.054Z,2.30
2023-02-26T00:37:20.556Z,2.33
2023-02-26T00:39:48.080Z,2.10
2023-02-26T00:42:15.790Z,2.10
2023-02-26T00:44:43.501Z,1.60
2023-02-26T00:47:49.482Z,1.63
2023-02-26T00:50:18.893Z,2.20
2023-02-26T00:52:49.243Z,2.20
2023-02-26T00:55:16.964Z,2.63
2023-02-26T00:57:44.431Z,2.20
2023-02-26T01:00:12.711Z,2.23
2023-02-26T01:02:40.560Z,2.27
2023-02-26T01:05:08.568Z,2.27
2023-02-26T01:07:41.154Z,2.13
2023-02-26T01:10:09.069Z,2.03
2023-02-26T01:12:36.729Z,3.07
2023-02-26T01:15:05.421Z,2.00
2023-02-26T01:17:36.561Z,2.63
2023-02-26T01:20:27.408Z,2.33
2023-02-26T01:23:05.560Z,2.03
2023-02-26T01:25:39.982Z,2.33
2023-02-26T01:28:07.708Z,1.70
2023-02-26T01:30:35.470Z,1.80
2023-02-26T01:33:17.914Z,1.60
2023-02-26T01:35:53.642Z,1.83
2023-02-26T01:38:25.242Z,1.43
2023-02-26T01:41:11.445Z,1.60
2023-02-26T01:43:59.194Z,1.80
2023-02-26T01:46:31.953Z,1.43
2023-02-26T01:49:00.090Z,1.77
2023-02-26T01:51:44.902Z,1.90
2023-02-26T01:54:13.126Z,1.73
2023-02-26T01:56:41.466Z,1.63
2023-02-26T01:59:10.410Z,1.50
2023-02-26T02:01:39.049Z,1.70
2023-02-26T02:04:09.144Z,1.60
2023-02-26T02:06:36.682Z,1.80
2023-02-26T02:09:06.221Z,1.80
2023-02-26T02:11:34.182Z,1.83
2023-02-26T02:14:04.708Z,1.70
2023-02-26T02:16:41.556Z,1.73
2023-02-26T02:19:09.089Z,2.10
2023-02-26T02:21:48.062Z,2.03
2023-02-26T02:24:31.009Z,1.13
2023-02-26T02:27:02.275Z,1.83
2023-02-26T02:29:45.117Z,1.37
2023-02-26T02:32:16.273Z,1.20
2023-02-26T02:34:50.176Z,1.83
2023-02-26T02:37:23.625Z,1.40
2023-02-26T02:39:53.743Z,1.90
2023-02-26T02:42:34.338Z,1.60
2023-02-26T02:45:05.843Z,1.20
2023-02-26T02:47:35.920Z,1.50
2023-02-26T02:50:03.473Z,1.40
2023-02-26T02:52:33.827Z,1.57
2023-02-26T02:55:10.816Z,1.30
2023-02-26T02:57:40.435Z,2.13
2023-02-26T03:00:09.588Z,2.37
2023-02-26T03:02:46.299Z,1.80
2023-02-26T03:05:14.453Z,2.33
2023-02-26T03:07:49.587Z,1.70
2023-02-26T03:10:17.890Z,2.20
2023-02-26T03:12:45.558Z,2.13
2023-02-26T03:15:14.244Z,2.00
2023-02-26T03:17:55.208Z,2.10
2023-02-26T03:20:32.313Z,1.80
2023-02-26T03:23:11.936Z,1.60
2023-02-26T03:25:59.953Z,1.50
2023-02-26T03:28:34.723Z,1.80
2023-02-26T03:31:10.606Z,1.30
2023-02-26T03:33:48.461Z,1.70
2023-02-26T03:36:19.981Z,1.87
2023-02-26T03:38:50.214Z,1.73
2023-02-26T03:41:26.471Z,1.30
2023-02-26T03:43:57.394Z,1.60
2023-02-26T03:46:29.988Z,1.57
2023-02-26T03:49:00.469Z,1.33
2023-02-26T03:51:28.730Z,0.97
2023-02-26T03:54:09.340Z,1.47
2023-02-26T03:56:40.780Z,1.10
2023-02-26T03:59:08.900Z,1.23
2023-02-26T04:01:40.986Z,1.07
2023-02-26T04:04:10.759Z,1.50
2023-02-26T04:06:38.371Z,1.60
2023-02-26T04:09:06.098Z,1.43
2023-02-26T04:11:34.663Z,1.30
2023-02-26T04:14:02.237Z,1.40
2023-02-26T04:16:29.940Z,1.60
2023-02-26T04:18:57.425Z,1.47
2023-02-26T04:21:24.987Z,2.13
2023-02-26T04:23:52.515Z,1.27
2023-02-26T04:26:20.132Z,2.17
2023-02-26T04:28:47.645Z,1.13
2023-02-26T04:31:15.434Z,1.40
2023-02-26T04:33:43.092Z,1.70
2023-02-26T04:36:10.867Z,2.00
2023-02-26T04:38:38.352Z,1.07
2023-02-26T04:41:06.069Z,1.90
2023-02-26T04:43:33.640Z,1.00
2023-02-26T04:46:01.304Z,2.33
2023-02-26T04:48:28.915Z,0.97
2023-02-26T04:50:56.479Z,1.90
2023-02-26T04:53:23.994Z,1.17
2023-02-26T04:55:52.519Z,1.40
2023-02-26T04:58:20.121Z,1.20
2023-02-26T05:00:54.063Z,1.70
2023-02-26T05:03:22.055Z,2.30
2023-02-26T05:05:49.664Z,1.70
2023-02-26T05:08:17.208Z,1.70
2023-02-26T05:10:44.691Z,1.53
2023-02-26T05:13:12.220Z,1.73
2023-02-26T05:15:39.717Z,1.40
2023-02-26T05:18:07.262Z,1.50
2023-02-26T05:20:34.813Z,1.50
2023-02-26T05:23:02.932Z,1.93
2023-02-26T05:25:30.672Z,1.13
2023-02-26T05:27:58.265Z,1.60
2023-02-26T05:30:25.797Z,1.47
2023-02-26T05:32:53.360Z,2.10
2023-02-26T05:35:20.872Z,1.97
2023-02-26T05:37:48.414Z,1.43
2023-02-26T05:40:15.904Z,1.60
2023-02-26T05:42:43.476Z,1.73
2023-02-26T05:45:11.397Z,1.23
2023-02-26T05:47:38.973Z,1.60
2023-02-26T05:50:07.187Z,1.73
2023-02-26T05:52:35.104Z,1.60
2023-02-26T05:55:02.980Z,1.30
2023-02-26T05:57:30.633Z,1.70
2023-02-26T05:59:58.132Z,2.17
2023-02-26T06:02:26.336Z,2.10
2023-02-26T06:04:54.283Z,2.10
2023-02-26T06:07:21.973Z,1.60
2023-02-26T06:09:49.510Z,1.57
2023-02-26T06:12:17.027Z,1.90
2023-02-26T06:14:44.540Z,1.40
2023-02-26T06:17:12.166Z,1.27
2023-02-26T06:19:39.684Z,1.40
2023-02-26T06:22:07.311Z,2.03
2023-02-26T06:24:34.808Z,1.70
2023-02-26T06:27:02.338Z,1.73
2023-02-26T06:29:29.893Z,1.93
2023-02-26T06:31:57.816Z,1.47
2023-02-26T06:34:25.423Z,1.90
2023-02-26T06:36:53.024Z,2.03
2023-02-26T06:39:20.591Z,1.97
2023-02-26T06:41:48.145Z,1.67
2023-02-26T06:44:15.711Z,2.10
2023-02-26T06:46:43.237Z,2.07
2023-02-26T06:49:10.743Z,3.50
2023-02-26T06:51:38.336Z,2.73
2023-02-26T06:54:05.849Z,2.37
2023-02-26T06:56:33.406Z,2.30
2023-02-26T06:59:00.970Z,2.30
2023-02-26T07:01:28.568Z,2.17
2023-02-26T07:03:56.204Z,1.90
2023-02-26T07:06:38.688Z,2.30
2023-02-26T07:09:06.387Z,1.97
2023-02-26T07:11:34.012Z,2.40
2023-02-26T07:14:01.512Z,2.40
2023-02-26T07:16:29.319Z,2.30
2023-02-26T07:18:57.110Z,1.50
2023-02-26T07:21:24.600Z,2.47
2023-02-26T07:23:52.148Z,1.70
2023-02-26T07:26:19.645Z,1.80
2023-02-26T07:28:47.166Z,1.83
2023-02-26T07:31:14.901Z,2.23
2023-02-26T07:33:42.546Z,2.27
2023-02-26T07:36:10.152Z,2.60
2023-02-26T07:38:37.703Z,2.83
2023-02-26T07:41:05.281Z,2.07
2023-02-26T07:43:32.829Z,2.10
2023-02-26T07:46:00.362Z,1.80
2023-02-26T07:48:28.041Z,1.73
2023-02-26T07:50:55.963Z,1.60
2023-02-26T07:53:23.738Z,1.20
2023-02-26T07:55:51.232Z,1.77
2023-02-26T07:58:18.898Z,1.30
2023-02-26T08:00:46.494Z,1.60
2023-02-26T08:03:14.164Z,1.93
2023-02-26T08:05:41.897Z,1.80
2023-02-26T08:08:09.472Z,1.57
2023-02-26T08:10:37.101Z,1.30
2023-02-26T08:13:04.667Z,1.40
2023-02-26T08:15:32.218Z,1.43
2023-02-26T08:18:00.058Z,1.50
2023-02-26T08:20:27.560Z,1.43
2023-02-26T08:22:55.235Z,1.43
2023-02-26T08:25:25.227Z,1.53
2023-02-26T08:27:52.898Z,1.63
2023-02-26T08:30:20.490Z,1.30
2023-02-26T08:32:48.327Z,1.70
2023-02-26T08:35:16.080Z,1.90
2023-02-26T08:37:43.801Z,1.30
2023-02-26T08:40:14.786Z,1.27
2023-02-26T08:42:42.760Z,1.60
2023-02-26T08:45:12.380Z,2.10
2023-02-26T08:47:53.926Z,1.37
2023-02-26T08:50:23.903Z,1.63
2023-02-26T08:52:51.432Z,2.53
2023-02-26T08:55:19.169Z,2.23
2023-02-26T08:57:46.770Z,1.33
2023-02-26T09:00:14.739Z,1.57
2023-02-26T09:02:42.412Z,1.63
2023-02-26T09:05:10.052Z,1.40
2023-02-26T09:07:37.570Z,2.10
2023-02-26T09:10:06.256Z,1.10
2023-02-26T09:12:34.074Z,1.20
2023-02-26T09:15:01.661Z,1.27
2023-02-26T09:17:29.272Z,1.73
2023-02-26T09:19:57.049Z,1.93
2023-02-26T09:22:24.740Z,1.60
2023-02-26T09:24:52.433Z,1.63
2023-02-26T09:27:20.060Z,1.87
2023-02-26T09:29:47.603Z,1.47
2023-02-26T09:32:15.350Z,1.43
2023-02-26T09:34:44.200Z,1.30
2023-02-26T09:37:11.833Z,1.40
2023-02-26T09:39:39.511Z,1.43
2023-02-26T09:42:25.226Z,1.50
2023-02-26T09:44:53.017Z,1.53
2023-02-26T09:47:20.802Z,1.10
2023-02-26T09:49:52.652Z,1.20
2023-02-26T09:52:42.056Z,1.10
2023-02-26T09:55:15.313Z,1.50
2023-02-26T09:57:44.380Z,1.30
2023-02-26T10:00:18.260Z,1.73
2023-02-26T10:02:55.782Z,1.43
2023-02-26T10:05:43.635Z,1.03
2023-02-26T10:08:18.687Z,1.53
2023-02-26T10:10:49.473Z,1.37
2023-02-26T10:13:22.687Z,1.20
2023-02-26T10:15:51.100Z,1.00
2023-02-26T10:18:30.190Z,1.07
2023-02-26T10:21:04.357Z,1.60
2023-02-26T10:23:37.832Z,1.20
2023-02-26T10:26:08.268Z,1.50
2023-02-26T10:28:42.358Z,1.20
2023-02-26T10:31:14.643Z,1.20
2023-02-26T10:33:45.210Z,1.20
2023-02-26T10:36:40.160Z,1.23
2023-02-26T10:39:26.743Z,1.23
2023-02-26T10:41:54.524Z,0.87
2023-02-26T10:44:40.922Z,0.90
2023-02-26T10:47:17.415Z,1.13
2023-02-26T10:49:59.791Z,0.90
2023-02-26T10:52:29.492Z,1.00
2023-02-26T10:55:09.007Z,0.80
2023-02-26T10:57:38.881Z,0.90
2023-02-26T11:00:07.367Z,1.10
2023-02-26T11:02:39.682Z,0.80
2023-02-26T11:05:08.914Z,0.70
2023-02-26T11:07:38.656Z,0.70
2023-02-26T11:10:13.544Z,1.20
2023-02-26T11:12:41.386Z,0.80
2023-02-26T11:15:13.596Z,0.87
2023-02-26T11:17:41.764Z,0.70
2023-02-26T11:20:12.270Z,0.67
2023-02-26T11:22:40.260Z,0.90
2023-02-26T11:25:08.153Z,0.73
2023-02-26T11:27:37.119Z,1.90
2023-02-26T11:30:08.151Z,2.30
2023-02-26T11:32:37.121Z,1.27
2023-02-26T11:35:07.634Z,1.33
2023-02-26T11:37:36.881Z,1.00
2023-02-26T11:40:06.500Z,1.27
2023-02-26T11:42:36.802Z,1.03
2023-02-26T11:45:05.920Z,0.90
2023-02-26T11:47:34.457Z,1.40
2023-02-26T11:50:03.109Z,0.97
2023-02-26T11:52:34.316Z,0.70
2023-02-26T11:55:03.062Z,1.47
2023-02-26T11:57:33.830Z,0.80
2023-02-26T12:00:02.218Z,1.30
2023-02-26T12:02:34.169Z,1.20
2023-02-26T12:05:03.323Z,1.10
2023-02-26T12:07:30.994Z,1.20
2023-02-26T12:09:58.603Z,1.00
2023-02-26T12:12:29.212Z,1.30
2023-02-26T12:14:59.682Z,1.03
2023-02-26T12:17:27.278Z,0.73
2023-02-26T12:19:57.899Z,1.30
2023-02-26T12:22:34.769Z,0.90
2023-02-26T12:25:20.872Z,1.20
2023-02-26T12:27:51.299Z,1.07
2023-02-26T12:30:27.518Z,1.10
2023-02-26T12:32:57.901Z,0.87
2023-02-26T12:35:31.286Z,1.10
2023-02-26T12:38:07.623Z,1.20
2023-02-26T12:40:44.382Z,1.30
2023-02-26T12:43:16.680Z,1.30
2023-02-26T12:45:50.418Z,0.90
2023-02-26T12:48:36.233Z,1.00
2023-02-26T12:51:03.814Z,1.20
2023-02-26T12:53:43.743Z,1.20
2023-02-26T12:56:14.378Z,1.00
2023-02-26T12:59:02.966Z,0.90
2023-02-26T13:02:00.626Z,0.80
2023-02-26T13:04:48.147Z,1.00
2023-02-26T13:07:34.654Z,0.67
2023-02-26T13:10:02.915Z,1.07
2023-02-26T13:12:34.024Z,1.30
2023-02-26T13:15:04.848Z,1.00
2023-02-26T13:17:38.352Z,0.93
2023-02-26T13:20:20.450Z,1.13
2023-02-26T13:22:50.962Z,0.90
2023-02-26T13:25:18.561Z,0.93
2023-02-26T13:27:47.474Z,0.90
2023-02-26T13:30:15.132Z,1.40
2023-02-26T13:32:43.343Z,1.10
2023-02-26T13:35:22.692Z,1.13
2023-02-26T13:37:51.888Z,1.20
2023-02-26T13:40:38.202Z,1.00
2023-02-26T13:43:05.737Z,1.40
2023-02-26T13:45:51.958Z,0.83
2023-02-26T13:48:22.454Z,1.23
2023-02-26T13:50:50.037Z,1.37
2023-02-26T13:53:35.788Z,1.20
2023-02-26T13:56:08.281Z,1.10
2023-02-26T13:58:39.256Z,0.87
2023-02-26T14:01:12.445Z,0.90
2023-02-26T14:03:48.254Z,0.80
2023-02-26T14:06:34.590Z,1.10
2023-02-26T14:09:04.240Z,1.47
2023-02-26T14:11:45.730Z,1.07
2023-02-26T14:14:16.740Z,1.00
2023-02-26T14:16:51.013Z,0.80
2023-02-26T14:19:24.391Z,0.80
2023-02-26T14:21:56.224Z,1.10
2023-02-26T14:24:30.138Z,1.20
2023-02-26T14:27:23.388Z,1.20
2023-02-26T14:29:56.946Z,1.37
2023-02-26T14:32:34.735Z,1.20
2023-02-26T14:35:17.601Z,1.00
2023-02-26T14:37:48.205Z,0.90
2023-02-26T14:40:15.834Z,1.00
2023-02-26T14:42:43.335Z,0.97
2023-02-26T14:45:16.867Z,1.10
2023-02-26T14:47:45.498Z,1.10
2023-02-26T14:50:16.368Z,1.00
2023-02-26T14:52:49.991Z,0.87
2023-02-26T14:55:21.088Z,1.30
2023-02-26T14:57:52.158Z,1.30
2023-02-26T15:00:38.530Z,0.93
2023-02-26T15:03:19.258Z,0.93
2023-02-26T15:06:05.043Z,0.90
2023-02-26T15:08:40.387Z,1.20
2023-02-26T15:11:17.127Z,0.97
2023-02-26T15:13:53.678Z,1.10
2023-02-26T15:16:21.468Z,1.07
2023-02-26T15:19:00.789Z,0.90
2023-02-26T15:21:46.692Z,0.93
2023-02-26T15:24:14.827Z,0.80
2023-02-26T15:26:57.981Z,1.43
2023-02-26T15:29:29.303Z,0.70
2023-02-26T15:31:58.786Z,1.40
2023-02-26T15:34:26.490Z,1.07
2023-02-26T15:36:54.273Z,1.23
2023-02-26T15:39:24.077Z,1.43
2023-02-26T15:41:52.806Z,1.37
2023-02-26T15:44:22.839Z,1.00
2023-02-26T15:46:57.894Z,1.00
2023-02-26T15:49:25.494Z,0.93
2023-02-26T15:51:53.804Z,1.17
2023-02-26T15:54:22.721Z,0.80
2023-02-26T15:56:51.068Z,0.80
2023-02-26T15:59:20.173Z,1.00
2023-02-26T16:01:49.198Z,0.90
2023-02-26T16:04:18.427Z,0.90
2023-02-26T16:06:47.431Z,1.07
2023-02-26T16:09:19.884Z,0.70
2023-02-26T16:11:48.385Z,1.00
2023-02-26T16:14:18.444Z,1.07
2023-02-26T16:16:48.812Z,0.90
2023-02-26T16:19:17.485Z,1.10
2023-02-26T16:21:45.953Z,1.20
2023-02-26T16:24:15.996Z,1.10
2023-02-26T16:26:44.888Z,1.10
2023-02-26T16:29:17.347Z,1.30
2023-02-26T16:31:46.760Z,1.23
2023-02-26T16:34:29.650Z,1.00
2023-02-26T16:36:59.202Z,0.83
2023-02-26T16:39:30.314Z,1.00
2023-02-26T16:42:24.008Z,0.97
2023-02-26T16:44:58.204Z,1.07
2023-02-26T16:47:26.597Z,1.00
2023-02-26T16:49:54.154Z,0.83
2023-02-26T16:52:23.585Z,1.20
2023-02-26T16:54:54.738Z,1.00
2023-02-26T16:57:35.164Z,1.27
2023-02-26T17:00:05.903Z,1.30
2023-02-26T17:02:35.609Z,1.30
2023-02-26T17:05:06.622Z,1.00
2023-02-26T17:07:40.038Z,1.30
2023-02-26T17:10:31.499Z,1.03
2023-02-26T17:13:03.377Z,1.10
2023-02-26T17:15:32.139Z,1.50
2023-02-26T17:17:59.778Z,3.10
2023-02-26T17:20:28.721Z,2.30
2023-02-26T17:22:56.942Z,2.50
2023-02-26T17:25:26.634Z,1.27
2023-02-26T17:27:54.224Z,8.30
2023-02-26T17:30:23.090Z,0.90
2023-02-26T17:32:51.125Z,1.50
2023-02-26T17:35:19.705Z,1.00
2023-02-26T17:37:47.287Z,1.33
2023-02-26T17:40:31.903Z,1.40
2023-02-26T17:42:59.581Z,1.23
2023-02-26T17:45:27.335Z,1.77
2023-02-26T17:47:55.023Z,1.40
2023-02-26T17:50:43.649Z,1.60
2023-02-26T17:53:11.459Z,1.50
2023-02-26T17:55:39.464Z,1.37
2023-02-26T17:58:08.095Z,1.90
2023-02-26T18:00:38.729Z,1.70
2023-02-26T18:03:06.447Z,1.23
2023-02-26T18:05:34.132Z,1.63
2023-02-26T18:08:01.750Z,1.30
2023-02-26T18:10:29.354Z,1.53
2023-02-26T18:12:56.986Z,1.57
2023-02-26T18:15:25.663Z,1.50
2023-02-26T18:17:55.085Z,1.83
2023-02-26T18:20:23.099Z,1.90
2023-02-26T18:22:50.778Z,1.57
2023-02-26T18:25:18.544Z,2.40
2023-02-26T18:27:47.400Z,2.23
2023-02-26T18:30:20.796Z,2.20
2023-02-26T18:32:48.533Z,2.13
2023-02-26T18:35:16.098Z,1.90
2023-02-26T18:37:43.687Z,1.97
2023-02-26T18:40:19.455Z,2.43
2023-02-26T18:42:47.045Z,2.00
2023-02-26T18:45:15.102Z,2.23
2023-02-26T18:47:42.796Z,1.20
2023-02-26T18:50:13.956Z,1.90
2023-02-26T18:52:41.957Z,2.20
2023-02-26T18:55:10.355Z,1.83
2023-02-26T18:57:38.557Z,2.67
2023-02-26T19:00:06.981Z,2.60
2023-02-26T19:02:34.668Z,1.70
2023-02-26T19:05:02.454Z,1.80
2023-02-26T19:07:30.204Z,1.60
2023-02-26T19:09:57.728Z,1.50
2023-02-26T19:12:25.340Z,2.00
2023-02-26T19:14:52.881Z,2.10
2023-02-26T19:17:20.814Z,2.03
2023-02-26T19:19:48.497Z,1.97
2023-02-26T19:22:16.560Z,1.50
2023-02-26T19:24:44.564Z,1.93
2023-02-26T19:27:13.649Z,1.77
2023-02-26T19:29:41.149Z,1.90
2023-02-26T19:32:09.063Z,1.77
2023-02-26T19:34:37.009Z,1.87
2023-02-26T19:37:04.840Z,1.80
2023-02-26T19:39:32.461Z,2.10
2023-02-26T19:42:00.872Z,2.27
2023-02-26T19:44:28.457Z,2.40
2023-02-26T19:46:56.070Z,2.30
2023-02-26T19:49:23.559Z,2.97
2023-02-26T19:51:51.147Z,1.70
2023-02-26T19:54:18.689Z,2.70
2023-02-26T19:56:46.494Z,3.07
2023-02-26T19:59:14.054Z,2.63
2023-02-26T20:01:41.703Z,3.17
2023-02-26T20:04:09.325Z,2.80
2023-02-26T20:06:36.969Z,2.40
2023-02-26T20:09:05.021Z,2.67
2023-02-26T20:11:32.687Z,2.20
2023-02-26T20:14:00.207Z,1.77
2023-02-26T20:16:28.147Z,2.77
2023-02-26T20:18:55.915Z,2.07
2023-02-26T20:21:23.596Z,2.10
2023-02-26T20:23:51.157Z,2.03
2023-02-26T20:26:18.766Z,2.30
2023-02-26T20:28:46.262Z,2.47
2023-02-26T20:31:13.964Z,1.87
2023-02-26T20:33:41.620Z,1.80
2023-02-26T20:36:10.050Z,2.37
2023-02-26T20:38:37.915Z,2.13
2023-02-26T20:41:05.733Z,2.67
2023-02-26T20:43:33.456Z,2.43
2023-02-26T20:46:01.248Z,2.57
2023-02-26T20:48:29.156Z,2.93
2023-02-26T20:51:03.173Z,1.90
2023-02-26T20:53:30.774Z,2.17
2023-02-26T20:55:58.307Z,1.93
2023-02-26T20:58:25.861Z,2.07
2023-02-26T21:00:56.033Z,2.90
2023-02-26T21:03:23.958Z,2.37
2023-02-26T21:05:51.607Z,2.20
2023-02-26T21:08:19.190Z,2.20
2023-02-26T21:10:46.653Z,2.10
2023-02-26T21:13:14.169Z,1.77
2023-02-26T21:15:41.690Z,2.37
2023-02-26T21:18:09.272Z,1.77
2023-02-26T21:20:37.971Z,2.13
2023-02-26T21:23:05.548Z,2.27
2023-02-26T21:25:33.055Z,1.80
2023-02-26T21:28:00.628Z,1.93
2023-02-26T21:30:28.136Z,2.23
2023-02-26T21:32:56.702Z,2.07
2023-02-26T21:35:24.225Z,1.83
2023-02-26T21:37:51.829Z,2.30
2023-02-26T21:40:23.063Z,2.03
2023-02-26T21:42:50.665Z,2.20
2023-02-26T21:45:18.320Z,2.00
2023-02-26T21:47:45.916Z,2.87
2023-02-26T21:50:13.471Z,1.83
2023-02-26T21:52:41.106Z,2.10
2023-02-26T21:55:08.789Z,2.00
2023-02-26T21:57:36.339Z,2.27
2023-02-26T22:00:05.467Z,1.77
2023-02-26T22:02:33.174Z,2.17
2023-02-26T22:05:00.695Z,2.60
2023-02-26T22:07:28.293Z,2.43
2023-02-26T22:09:55.859Z,2.20
2023-02-26T22:12:23.409Z,2.83
2023-02-26T22:14:50.992Z,2.47
2023-02-26T22:17:18.580Z,2.17
2023-02-26T22:19:46.112Z,2.30
2023-02-26T22:22:13.712Z,2.20
2023-02-26T22:24:41.342Z,2.37
2023-02-26T22:27:09.046Z,2.07
2023-02-26T22:29:36.590Z,2.43
2023-02-26T22:32:04.232Z,2.50
2023-02-26T22:34:31.838Z,2.43
2023-02-26T22:36:59.584Z,2.70
2023-02-26T22:39:27.184Z,2.83
2023-02-26T22:41:54.777Z,2.50
2023-02-26T22:44:22.348Z,2.30
2023-02-26T22:46:49.916Z,3.10
2023-02-26T22:49:19.078Z,3.07
2023-02-26T22:51:47.352Z,2.67
2023-02-26T22:54:14.858Z,2.53
2023-02-26T22:56:42.462Z,2.77
2023-02-26T22:59:09.950Z,3.30
2023-02-26T23:01:37.746Z,2.97
2023-02-26T23:04:05.634Z,2.80
2023-02-26T23:06:33.300Z,2.77
2023-02-26T23:09:00.793Z,3.10
2023-02-26T23:11:28.824Z,3.03
2023-02-26T23:13:56.596Z,3.30
2023-02-26T23:16:24.370Z,2.77
2023-02-26T23:18:51.881Z,3.10
2023-02-26T23:21:19.396Z,3.23
2023-02-26T23:23:47.008Z,4.13
2023-02-26T23:26:14.789Z,3.80
2023-02-26T23:28:42.296Z,4.00
2023-02-26T23:31:09.903Z,3.63
2023-02-26T23:33:37.582Z,3.63
2023-02-26T23:36:05.257Z,3.20
2023-02-26T23:38:32.771Z,3.40
2023-02-26T23:41:00.373Z,3.80
2023-02-26T23:43:28.007Z,4.20
2023-02-26T23:45:55.605Z,4.67
2023-02-26T23:48:23.185Z,3.90
2023-02-26T23:50:51.222Z,3.50
2023-02-26T23:53:18.680Z,3.70
2023-02-26T23:55:46.944Z,4.43
2023-02-26T23:58:14.661Z,4.10
